sensor_id;sensor_type;location;lat;lon;timestamp;P1;durP1;ratioP1;P2;durP2;ratioP2
19446;SDS011;9862;49.462;11.054;2022-12-07T00:01:18;10.77;;;5.88;;
19446;SDS011;9862;49.462;11.054;2022-12-07T00:03:46;7.28;;;5.38;;
19446;SDS011;9862;49.462;11.054;2022-12-07T00:06:15;7.63;;;5.35;;
19446;SDS011;9862;49.462;11.054;2022-12-07T00:08:42;7.25;;;5.57;;
19446;SDS011;9862;49.462;11.054;2022-12-07T00:11:10;8.05;;;5.85;;
19446;SDS011;9862;49.462;11.054;2022-12-07T00:13:38;8.73;;;5.00;;
19446;SDS011;9862;49.462;11.054;2022-12-07T00:16:07;6.32;;;5.20;;
19446;SDS011;9862;49.462;11.054;2022-12-07T00:18:35;8.07;;;6.15;;
19446;SDS011;9862;49.462;11.054;2022-12-07T00:21:02;9.32;;;5.95;;
19446;SDS011;9862;49.462;11.054;2022-12-07T00:23:29;8.75;;;5.85;;
19446;SDS011;9862;49.462;11.054;2022-12-07T00:26:02;8.95;;;5.68;;
19446;SDS011;9862;49.462;11.054;2022-12-07T00:28:30;8.68;;;5.95;;
19446;SDS011;9862;49.462;11.054;2022-12-07T00:30:59;8.68;;;5.60;;
19446;SDS011;9862;49.462;11.054;2022-12-07T00:33:27;8.25;;;6.03;;
19446;SDS011;9862;49.462;11.054;2022-12-07T00:35:55;10.15;;;6.47;;
19446;SDS011;9862;49.462;11.054;2022-12-07T00:38:22;8.15;;;5.93;;
19446;SDS011;9862;49.462;11.054;2022-12-07T00:40:53;9.13;;;5.88;;
19446;SDS011;9862;49.462;11.054;2022-12-07T00:43:20;8.40;;;5.80;;
19446;SDS011;9862;49.462;11.054;2022-12-07T00:45:47;9.70;;;6.15;;
19446;SDS011;9862;49.462;11.054;2022-12-07T00:48:14;9.38;;;5.53;;
19446;SDS011;9862;49.462;11.054;2022-12-07T00:50:42;10.40;;;6.43;;
19446;SDS011;9862;49.462;11.054;2022-12-07T00:53:08;8.18;;;6.10;;
19446;SDS011;9862;49.462;11.054;2022-12-07T00:55:35;8.80;;;6.05;;
19446;SDS011;9862;49.462;11.054;2022-12-07T00:58:02;11.00;;;6.90;;
19446;SDS011;9862;49.462;11.054;2022-12-07T01:00:29;9.52;;;7.43;;
19446;SDS011;9862;49.462;11.054;2022-12-07T01:02:56;11.98;;;7.00;;
19446;SDS011;9862;49.462;11.054;2022-12-07T01:05:22;9.88;;;6.47;;
19446;SDS011;9862;49.462;11.054;2022-12-07T01:07:50;10.20;;;6.60;;
19446;SDS011;9862;49.462;11.054;2022-12-07T01:10:17;7.97;;;5.93;;
19446;SDS011;9862;49.462;11.054;2022-12-07T01:12:44;9.95;;;6.65;;
19446;SDS011;9862;49.462;11.054;2022-12-07T01:15:10;10.65;;;6.65;;
19446;SDS011;9862;49.462;11.054;2022-12-07T01:17:37;9.93;;;6.45;;
19446;SDS011;9862;49.462;11.054;2022-12-07T01:20:04;9.48;;;6.03;;
19446;SDS011;9862;49.462;11.054;2022-12-07T01:22:35;10.10;;;5.95;;
19446;SDS011;9862;49.462;11.054;2022-12-07T01:25:04;9.23;;;6.22;;
19446;SDS011;9862;49.462;11.054;2022-12-07T01:27:32;9.23;;;6.57;;
19446;SDS011;9862;49.462;11.054;2022-12-07T01:29:58;9.57;;;6.25;;
19446;SDS011;9862;49.462;11.054;2022-12-07T01:32:25;9.35;;;6.63;;
19446;SDS011;9862;49.462;11.054;2022-12-07T01:34:52;10.48;;;7.25;;
19446;SDS011;9862;49.462;11.054;2022-12-07T01:37:19;13.40;;;7.18;;
19446;SDS011;9862;49.462;11.054;2022-12-07T01:39:47;9.57;;;6.15;;
19446;SDS011;9862;49.462;11.054;2022-12-07T01:42:16;11.18;;;7.13;;
19446;SDS011;9862;49.462;11.054;2022-12-07T01:47:48;10.63;;;7.07;;
19446;SDS011;9862;49.462;11.054;2022-12-07T01:50:19;15.77;;;8.90;;
19446;SDS011;9862;49.462;11.054;2022-12-07T01:52:47;11.05;;;7.38;;
19446;SDS011;9862;49.462;11.054;2022-12-07T01:55:15;11.27;;;7.10;;
19446;SDS011;9862;49.462;11.054;2022-12-07T01:57:45;14.18;;;7.78;;
19446;SDS011;9862;49.462;11.054;2022-12-07T02:00:15;11.95;;;7.95;;
19446;SDS011;9862;49.462;11.054;2022-12-07T02:02:43;11.13;;;7.45;;
19446;SDS011;9862;49.462;11.054;2022-12-07T02:05:13;10.90;;;7.57;;
19446;SDS011;9862;49.462;11.054;2022-12-07T02:07:40;11.15;;;7.28;;
19446;SDS011;9862;49.462;11.054;2022-12-07T02:10:14;11.77;;;7.80;;
19446;SDS011;9862;49.462;11.054;2022-12-07T02:12:42;12.82;;;7.53;;
19446;SDS011;9862;49.462;11.054;2022-12-07T02:15:11;11.63;;;7.38;;
19446;SDS011;9862;49.462;11.054;2022-12-07T02:17:40;13.93;;;8.18;;
19446;SDS011;9862;49.462;11.054;2022-12-07T02:20:20;11.48;;;7.10;;
19446;SDS011;9862;49.462;11.054;2022-12-07T02:29:11;13.23;;;8.25;;
19446;SDS011;9862;49.462;11.054;2022-12-07T02:31:44;12.18;;;7.15;;
19446;SDS011;9862;49.462;11.054;2022-12-07T02:34:18;11.43;;;7.53;;
19446;SDS011;9862;49.462;11.054;2022-12-07T02:36:52;14.20;;;8.60;;
19446;SDS011;9862;49.462;11.054;2022-12-07T02:39:25;12.85;;;8.35;;
19446;SDS011;9862;49.462;11.054;2022-12-07T02:41:57;12.93;;;8.02;;
19446;SDS011;9862;49.462;11.054;2022-12-07T02:44:30;13.20;;;8.55;;
19446;SDS011;9862;49.462;11.054;2022-12-07T02:46:59;15.82;;;8.45;;
19446;SDS011;9862;49.462;11.054;2022-12-07T02:49:29;15.20;;;9.60;;
19446;SDS011;9862;49.462;11.054;2022-12-07T02:51:57;13.88;;;9.10;;
19446;SDS011;9862;49.462;11.054;2022-12-07T02:54:24;17.30;;;9.35;;
19446;SDS011;9862;49.462;11.054;2022-12-07T02:56:52;14.30;;;8.15;;
19446;SDS011;9862;49.462;11.054;2022-12-07T02:59:27;15.88;;;8.38;;
19446;SDS011;9862;49.462;11.054;2022-12-07T03:02:06;15.77;;;9.10;;
19446;SDS011;9862;49.462;11.054;2022-12-07T03:04:45;16.55;;;8.88;;
19446;SDS011;9862;49.462;11.054;2022-12-07T03:07:21;13.80;;;8.80;;
19446;SDS011;9862;49.462;11.054;2022-12-07T03:09:57;12.95;;;7.85;;
19446;SDS011;9862;49.462;11.054;2022-12-07T03:12:29;14.18;;;8.07;;
19446;SDS011;9862;49.462;11.054;2022-12-07T03:15:05;13.65;;;8.63;;
19446;SDS011;9862;49.462;11.054;2022-12-07T03:17:42;14.05;;;8.45;;
19446;SDS011;9862;49.462;11.054;2022-12-07T03:20:13;12.07;;;7.78;;
19446;SDS011;9862;49.462;11.054;2022-12-07T03:22:45;13.85;;;8.50;;
19446;SDS011;9862;49.462;11.054;2022-12-07T03:25:15;13.93;;;8.73;;
19446;SDS011;9862;49.462;11.054;2022-12-07T03:27:44;14.43;;;7.95;;
19446;SDS011;9862;49.462;11.054;2022-12-07T03:30:17;12.05;;;8.10;;
19446;SDS011;9862;49.462;11.054;2022-12-07T03:32:45;12.15;;;8.27;;
19446;SDS011;9862;49.462;11.054;2022-12-07T03:35:20;10.90;;;6.82;;
19446;SDS011;9862;49.462;11.054;2022-12-07T03:37:52;12.57;;;7.85;;
19446;SDS011;9862;49.462;11.054;2022-12-07T03:40:22;14.38;;;8.35;;
19446;SDS011;9862;49.462;11.054;2022-12-07T03:42:54;14.68;;;8.23;;
19446;SDS011;9862;49.462;11.054;2022-12-07T03:45:29;16.98;;;8.77;;
19446;SDS011;9862;49.462;11.054;2022-12-07T03:48:02;14.63;;;8.23;;
19446;SDS011;9862;49.462;11.054;2022-12-07T03:50:35;11.98;;;7.90;;
19446;SDS011;9862;49.462;11.054;2022-12-07T03:53:08;13.73;;;8.10;;
19446;SDS011;9862;49.462;11.054;2022-12-07T03:55:41;12.38;;;8.15;;
19446;SDS011;9862;49.462;11.054;2022-12-07T03:58:11;12.35;;;8.10;;
19446;SDS011;9862;49.462;11.054;2022-12-07T04:00:41;13.98;;;8.02;;
19446;SDS011;9862;49.462;11.054;2022-12-07T04:03:09;13.77;;;8.32;;
19446;SDS011;9862;49.462;11.054;2022-12-07T04:05:36;13.35;;;7.97;;
19446;SDS011;9862;49.462;11.054;2022-12-07T04:08:04;15.05;;;8.45;;
19446;SDS011;9862;49.462;11.054;2022-12-07T04:10:33;14.90;;;8.60;;
19446;SDS011;9862;49.462;11.054;2022-12-07T04:13:00;13.82;;;8.57;;
19446;SDS011;9862;49.462;11.054;2022-12-07T04:15:27;16.10;;;9.25;;
19446;SDS011;9862;49.462;11.054;2022-12-07T04:17:55;14.88;;;8.80;;
19446;SDS011;9862;49.462;11.054;2022-12-07T04:20:22;15.27;;;8.73;;
19446;SDS011;9862;49.462;11.054;2022-12-07T04:22:49;14.20;;;8.70;;
19446;SDS011;9862;49.462;11.054;2022-12-07T04:25:15;14.68;;;8.70;;
19446;SDS011;9862;49.462;11.054;2022-12-07T04:27:42;15.02;;;8.85;;
19446;SDS011;9862;49.462;11.054;2022-12-07T04:30:09;14.63;;;8.60;;
19446;SDS011;9862;49.462;11.054;2022-12-07T04:32:36;15.73;;;9.43;;
19446;SDS011;9862;49.462;11.054;2022-12-07T04:35:07;17.55;;;8.93;;
19446;SDS011;9862;49.462;11.054;2022-12-07T04:37:34;13.15;;;8.38;;
19446;SDS011;9862;49.462;11.054;2022-12-07T04:40:01;12.85;;;8.23;;
19446;SDS011;9862;49.462;11.054;2022-12-07T04:42:28;13.07;;;8.13;;
19446;SDS011;9862;49.462;11.054;2022-12-07T04:44:57;15.13;;;8.88;;
19446;SDS011;9862;49.462;11.054;2022-12-07T04:47:23;16.05;;;9.82;;
19446;SDS011;9862;49.462;11.054;2022-12-07T04:49:50;18.63;;;9.82;;
19446;SDS011;9862;49.462;11.054;2022-12-07T04:52:18;14.70;;;9.50;;
19446;SDS011;9862;49.462;11.054;2022-12-07T04:54:45;16.63;;;9.75;;
19446;SDS011;9862;49.462;11.054;2022-12-07T04:57:12;14.98;;;9.50;;
19446;SDS011;9862;49.462;11.054;2022-12-07T04:59:38;16.95;;;10.25;;
19446;SDS011;9862;49.462;11.054;2022-12-07T05:02:05;17.90;;;10.13;;
19446;SDS011;9862;49.462;11.054;2022-12-07T05:04:32;16.15;;;9.18;;
19446;SDS011;9862;49.462;11.054;2022-12-07T05:06:58;17.70;;;8.90;;
19446;SDS011;9862;49.462;11.054;2022-12-07T05:09:26;20.70;;;10.10;;
19446;SDS011;9862;49.462;11.054;2022-12-07T05:11:53;17.50;;;9.63;;
19446;SDS011;9862;49.462;11.054;2022-12-07T05:14:20;17.77;;;9.85;;
19446;SDS011;9862;49.462;11.054;2022-12-07T05:16:48;16.50;;;9.40;;
19446;SDS011;9862;49.462;11.054;2022-12-07T05:19:16;19.85;;;11.27;;
19446;SDS011;9862;49.462;11.054;2022-12-07T05:21:43;19.75;;;10.05;;
19446;SDS011;9862;49.462;11.054;2022-12-07T05:24:11;17.63;;;10.35;;
19446;SDS011;9862;49.462;11.054;2022-12-07T05:26:40;20.27;;;10.63;;
19446;SDS011;9862;49.462;11.054;2022-12-07T05:29:07;19.98;;;10.25;;
19446;SDS011;9862;49.462;11.054;2022-12-07T05:31:36;20.48;;;9.55;;
19446;SDS011;9862;49.462;11.054;2022-12-07T05:34:03;17.05;;;9.50;;
19446;SDS011;9862;49.462;11.054;2022-12-07T05:36:30;18.60;;;9.88;;
19446;SDS011;9862;49.462;11.054;2022-12-07T05:38:57;18.90;;;10.48;;
19446;SDS011;9862;49.462;11.054;2022-12-07T05:41:23;17.63;;;9.77;;
19446;SDS011;9862;49.462;11.054;2022-12-07T05:44:09;20.27;;;10.88;;
19446;SDS011;9862;49.462;11.054;2022-12-07T05:46:35;20.35;;;11.25;;
19446;SDS011;9862;49.462;11.054;2022-12-07T05:49:02;21.63;;;10.55;;
19446;SDS011;9862;49.462;11.054;2022-12-07T05:51:29;19.27;;;11.15;;
19446;SDS011;9862;49.462;11.054;2022-12-07T05:53:55;20.70;;;11.07;;
19446;SDS011;9862;49.462;11.054;2022-12-07T05:56:22;19.75;;;11.10;;
19446;SDS011;9862;49.462;11.054;2022-12-07T05:58:49;20.73;;;10.02;;
19446;SDS011;9862;49.462;11.054;2022-12-07T06:01:34;18.77;;;11.00;;
19446;SDS011;9862;49.462;11.054;2022-12-07T06:04:02;20.60;;;11.38;;
19446;SDS011;9862;49.462;11.054;2022-12-07T06:06:29;20.90;;;11.18;;
19446;SDS011;9862;49.462;11.054;2022-12-07T06:08:56;22.52;;;11.70;;
19446;SDS011;9862;49.462;11.054;2022-12-07T06:11:23;22.55;;;11.40;;
19446;SDS011;9862;49.462;11.054;2022-12-07T06:14:06;21.25;;;11.32;;
19446;SDS011;9862;49.462;11.054;2022-12-07T06:16:34;21.95;;;12.32;;
19446;SDS011;9862;49.462;11.054;2022-12-07T06:19:01;27.30;;;12.68;;
19446;SDS011;9862;49.462;11.054;2022-12-07T06:21:28;18.92;;;10.48;;
19446;SDS011;9862;49.462;11.054;2022-12-07T06:23:55;22.17;;;11.30;;
19446;SDS011;9862;49.462;11.054;2022-12-07T06:26:21;26.48;;;12.00;;
19446;SDS011;9862;49.462;11.054;2022-12-07T06:28:48;24.08;;;11.88;;
19446;SDS011;9862;49.462;11.054;2022-12-07T06:31:15;25.55;;;11.38;;
19446;SDS011;9862;49.462;11.054;2022-12-07T06:33:43;24.27;;;11.98;;
19446;SDS011;9862;49.462;11.054;2022-12-07T06:36:10;23.75;;;12.73;;
19446;SDS011;9862;49.462;11.054;2022-12-07T06:38:37;22.95;;;12.30;;
19446;SDS011;9862;49.462;11.054;2022-12-07T06:41:04;25.05;;;12.82;;
19446;SDS011;9862;49.462;11.054;2022-12-07T06:43:31;21.65;;;11.82;;
19446;SDS011;9862;49.462;11.054;2022-12-07T06:45:58;24.27;;;12.73;;
19446;SDS011;9862;49.462;11.054;2022-12-07T06:48:25;24.30;;;13.10;;
19446;SDS011;9862;49.462;11.054;2022-12-07T06:50:56;23.50;;;12.10;;
19446;SDS011;9862;49.462;11.054;2022-12-07T06:53:22;24.08;;;12.98;;
19446;SDS011;9862;49.462;11.054;2022-12-07T06:55:49;25.58;;;12.48;;
19446;SDS011;9862;49.462;11.054;2022-12-07T06:58:19;24.42;;;12.48;;
19446;SDS011;9862;49.462;11.054;2022-12-07T07:00:47;20.00;;;11.63;;
19446;SDS011;9862;49.462;11.054;2022-12-07T07:03:14;23.63;;;12.20;;
19446;SDS011;9862;49.462;11.054;2022-12-07T07:05:41;26.17;;;12.70;;
19446;SDS011;9862;49.462;11.054;2022-12-07T07:08:09;27.35;;;12.88;;
19446;SDS011;9862;49.462;11.054;2022-12-07T07:10:36;31.27;;;13.73;;
19446;SDS011;9862;49.462;11.054;2022-12-07T07:13:03;29.23;;;16.92;;
19446;SDS011;9862;49.462;11.054;2022-12-07T07:15:30;26.97;;;15.53;;
19446;SDS011;9862;49.462;11.054;2022-12-07T07:17:58;26.35;;;13.43;;
19446;SDS011;9862;49.462;11.054;2022-12-07T07:20:24;27.23;;;13.52;;
19446;SDS011;9862;49.462;11.054;2022-12-07T07:22:53;25.02;;;12.60;;
19446;SDS011;9862;49.462;11.054;2022-12-07T07:25:22;29.13;;;11.23;;
19446;SDS011;9862;49.462;11.054;2022-12-07T07:27:48;20.40;;;11.95;;
19446;SDS011;9862;49.462;11.054;2022-12-07T07:30:15;24.63;;;13.10;;
19446;SDS011;9862;49.462;11.054;2022-12-07T07:32:42;19.98;;;10.82;;
19446;SDS011;9862;49.462;11.054;2022-12-07T07:35:08;23.30;;;11.68;;
19446;SDS011;9862;49.462;11.054;2022-12-07T07:37:35;23.52;;;11.32;;
19446;SDS011;9862;49.462;11.054;2022-12-07T07:40:02;24.30;;;11.88;;
19446;SDS011;9862;49.462;11.054;2022-12-07T07:42:30;26.13;;;12.30;;
19446;SDS011;9862;49.462;11.054;2022-12-07T07:44:57;24.10;;;12.02;;
19446;SDS011;9862;49.462;11.054;2022-12-07T07:47:23;22.85;;;11.20;;
19446;SDS011;9862;49.462;11.054;2022-12-07T07:49:50;25.67;;;11.18;;
19446;SDS011;9862;49.462;11.054;2022-12-07T07:52:17;22.45;;;11.45;;
19446;SDS011;9862;49.462;11.054;2022-12-07T07:54:43;28.77;;;13.40;;
19446;SDS011;9862;49.462;11.054;2022-12-07T07:57:10;28.40;;;11.88;;
19446;SDS011;9862;49.462;11.054;2022-12-07T07:59:38;23.00;;;12.30;;
19446;SDS011;9862;49.462;11.054;2022-12-07T08:02:05;23.20;;;12.77;;
19446;SDS011;9862;49.462;11.054;2022-12-07T08:04:31;24.33;;;12.32;;
19446;SDS011;9862;49.462;11.054;2022-12-07T08:06:58;20.73;;;11.45;;
19446;SDS011;9862;49.462;11.054;2022-12-07T08:09:24;22.10;;;11.52;;
19446;SDS011;9862;49.462;11.054;2022-12-07T08:11:51;22.75;;;11.98;;
19446;SDS011;9862;49.462;11.054;2022-12-07T08:14:17;23.50;;;12.10;;
19446;SDS011;9862;49.462;11.054;2022-12-07T08:16:45;26.23;;;13.00;;
19446;SDS011;9862;49.462;11.054;2022-12-07T08:19:12;21.15;;;11.25;;
19446;SDS011;9862;49.462;11.054;2022-12-07T08:21:39;23.88;;;11.82;;
19446;SDS011;9862;49.462;11.054;2022-12-07T08:24:05;24.95;;;11.23;;
19446;SDS011;9862;49.462;11.054;2022-12-07T08:26:33;27.80;;;13.18;;
19446;SDS011;9862;49.462;11.054;2022-12-07T08:28:59;29.63;;;12.43;;
19446;SDS011;9862;49.462;11.054;2022-12-07T08:31:26;26.17;;;12.02;;
19446;SDS011;9862;49.462;11.054;2022-12-07T08:33:54;67.68;;;26.40;;
19446;SDS011;9862;49.462;11.054;2022-12-07T08:36:21;23.80;;;11.35;;
19446;SDS011;9862;49.462;11.054;2022-12-07T08:38:48;22.83;;;11.30;;
19446;SDS011;9862;49.462;11.054;2022-12-07T08:41:15;27.50;;;13.23;;
19446;SDS011;9862;49.462;11.054;2022-12-07T08:43:42;22.00;;;11.43;;
19446;SDS011;9862;49.462;11.054;2022-12-07T08:46:09;25.90;;;11.50;;
19446;SDS011;9862;49.462;11.054;2022-12-07T08:48:41;26.65;;;12.55;;
19446;SDS011;9862;49.462;11.054;2022-12-07T08:51:12;25.77;;;11.23;;
19446;SDS011;9862;49.462;11.054;2022-12-07T08:53:40;24.27;;;11.73;;
19446;SDS011;9862;49.462;11.054;2022-12-07T08:56:08;20.52;;;10.13;;
19446;SDS011;9862;49.462;11.054;2022-12-07T08:58:35;19.90;;;10.18;;
19446;SDS011;9862;49.462;11.054;2022-12-07T09:01:04;19.25;;;9.43;;
19446;SDS011;9862;49.462;11.054;2022-12-07T09:03:30;25.30;;;11.50;;
19446;SDS011;9862;49.462;11.054;2022-12-07T09:05:57;15.48;;;8.60;;
19446;SDS011;9862;49.462;11.054;2022-12-07T09:08:26;18.00;;;9.50;;
19446;SDS011;9862;49.462;11.054;2022-12-07T09:10:59;22.08;;;9.77;;
19446;SDS011;9862;49.462;11.054;2022-12-07T09:13:25;20.30;;;9.80;;
19446;SDS011;9862;49.462;11.054;2022-12-07T09:15:52;20.73;;;9.43;;
19446;SDS011;9862;49.462;11.054;2022-12-07T09:18:19;24.25;;;9.60;;
19446;SDS011;9862;49.462;11.054;2022-12-07T09:20:45;14.93;;;8.32;;
19446;SDS011;9862;49.462;11.054;2022-12-07T09:23:12;19.15;;;8.95;;
19446;SDS011;9862;49.462;11.054;2022-12-07T09:25:40;21.77;;;8.95;;
19446;SDS011;9862;49.462;11.054;2022-12-07T09:28:06;17.10;;;9.30;;
19446;SDS011;9862;49.462;11.054;2022-12-07T09:30:33;17.50;;;8.45;;
19446;SDS011;9862;49.462;11.054;2022-12-07T09:33:00;18.05;;;9.05;;
19446;SDS011;9862;49.462;11.054;2022-12-07T09:35:27;18.95;;;8.85;;
19446;SDS011;9862;49.462;11.054;2022-12-07T09:37:54;18.13;;;8.60;;
19446;SDS011;9862;49.462;11.054;2022-12-07T09:40:21;17.98;;;8.60;;
19446;SDS011;9862;49.462;11.054;2022-12-07T09:42:51;17.92;;;8.63;;
19446;SDS011;9862;49.462;11.054;2022-12-07T09:45:21;17.60;;;9.05;;
19446;SDS011;9862;49.462;11.054;2022-12-07T09:47:50;14.98;;;7.43;;
19446;SDS011;9862;49.462;11.054;2022-12-07T09:50:17;19.17;;;9.02;;
19446;SDS011;9862;49.462;11.054;2022-12-07T09:52:47;18.85;;;8.35;;
19446;SDS011;9862;49.462;11.054;2022-12-07T09:55:15;15.82;;;8.05;;
19446;SDS011;9862;49.462;11.054;2022-12-07T09:57:49;19.30;;;9.48;;
19446;SDS011;9862;49.462;11.054;2022-12-07T10:00:18;18.20;;;9.07;;
19446;SDS011;9862;49.462;11.054;2022-12-07T10:02:47;16.38;;;8.90;;
19446;SDS011;9862;49.462;11.054;2022-12-07T10:05:17;16.88;;;8.15;;
19446;SDS011;9862;49.462;11.054;2022-12-07T10:07:47;19.73;;;9.75;;
19446;SDS011;9862;49.462;11.054;2022-12-07T10:10:15;17.05;;;8.35;;
19446;SDS011;9862;49.462;11.054;2022-12-07T10:12:56;16.15;;;8.30;;
19446;SDS011;9862;49.462;11.054;2022-12-07T10:15:38;16.92;;;8.15;;
19446;SDS011;9862;49.462;11.054;2022-12-07T10:18:16;16.77;;;9.20;;
19446;SDS011;9862;49.462;11.054;2022-12-07T10:20:59;18.58;;;8.55;;
19446;SDS011;9862;49.462;11.054;2022-12-07T10:23:28;17.92;;;9.18;;
19446;SDS011;9862;49.462;11.054;2022-12-07T10:25:54;17.40;;;8.32;;
19446;SDS011;9862;49.462;11.054;2022-12-07T10:28:23;16.10;;;8.57;;
19446;SDS011;9862;49.462;11.054;2022-12-07T10:30:54;16.13;;;8.45;;
19446;SDS011;9862;49.462;11.054;2022-12-07T10:33:31;19.50;;;8.23;;
19446;SDS011;9862;49.462;11.054;2022-12-07T10:36:16;15.48;;;8.18;;
19446;SDS011;9862;49.462;11.054;2022-12-07T10:38:46;15.70;;;8.07;;
19446;SDS011;9862;49.462;11.054;2022-12-07T10:41:14;17.00;;;8.75;;
19446;SDS011;9862;49.462;11.054;2022-12-07T10:43:49;19.10;;;8.85;;
19446;SDS011;9862;49.462;11.054;2022-12-07T10:46:39;14.27;;;8.68;;
19446;SDS011;9862;49.462;11.054;2022-12-07T10:49:34;13.55;;;7.55;;
19446;SDS011;9862;49.462;11.054;2022-12-07T10:52:14;15.23;;;8.15;;
19446;SDS011;9862;49.462;11.054;2022-12-07T10:54:49;17.02;;;8.73;;
19446;SDS011;9862;49.462;11.054;2022-12-07T10:57:27;15.50;;;8.45;;
19446;SDS011;9862;49.462;11.054;2022-12-07T11:00:08;13.73;;;8.10;;
19446;SDS011;9862;49.462;11.054;2022-12-07T11:05:49;14.00;;;8.10;;
19446;SDS011;9862;49.462;11.054;2022-12-07T11:08:21;18.15;;;8.45;;
19446;SDS011;9862;49.462;11.054;2022-12-07T11:11:06;14.70;;;9.13;;
19446;SDS011;9862;49.462;11.054;2022-12-07T11:13:40;18.00;;;8.93;;
19446;SDS011;9862;49.462;11.054;2022-12-07T11:16:18;15.32;;;8.38;;
19446;SDS011;9862;49.462;11.054;2022-12-07T11:18:51;21.95;;;9.80;;
19446;SDS011;9862;49.462;11.054;2022-12-07T11:21:33;16.52;;;8.75;;
19446;SDS011;9862;49.462;11.054;2022-12-07T11:24:06;17.80;;;8.70;;
19446;SDS011;9862;49.462;11.054;2022-12-07T11:26:41;17.10;;;8.90;;
19446;SDS011;9862;49.462;11.054;2022-12-07T11:29:28;18.70;;;9.48;;
19446;SDS011;9862;49.462;11.054;2022-12-07T11:32:13;18.38;;;9.95;;
19446;SDS011;9862;49.462;11.054;2022-12-07T11:34:49;18.30;;;9.18;;
19446;SDS011;9862;49.462;11.054;2022-12-07T11:37:24;19.38;;;9.80;;
19446;SDS011;9862;49.462;11.054;2022-12-07T11:39:54;19.35;;;9.43;;
19446;SDS011;9862;49.462;11.054;2022-12-07T11:42:25;18.83;;;10.52;;
19446;SDS011;9862;49.462;11.054;2022-12-07T11:44:56;15.93;;;8.82;;
19446;SDS011;9862;49.462;11.054;2022-12-07T11:47:30;18.95;;;9.93;;
19446;SDS011;9862;49.462;11.054;2022-12-07T11:50:08;15.98;;;9.10;;
19446;SDS011;9862;49.462;11.054;2022-12-07T11:52:48;17.00;;;9.75;;
19446;SDS011;9862;49.462;11.054;2022-12-07T11:55:19;18.65;;;9.80;;
19446;SDS011;9862;49.462;11.054;2022-12-07T11:57:51;17.73;;;9.13;;
19446;SDS011;9862;49.462;11.054;2022-12-07T12:00:23;16.05;;;8.85;;
19446;SDS011;9862;49.462;11.054;2022-12-07T12:02:52;17.67;;;9.27;;
19446;SDS011;9862;49.462;11.054;2022-12-07T12:05:24;17.33;;;9.57;;
19446;SDS011;9862;49.462;11.054;2022-12-07T12:07:54;18.45;;;9.43;;
19446;SDS011;9862;49.462;11.054;2022-12-07T12:10:28;19.08;;;9.25;;
19446;SDS011;9862;49.462;11.054;2022-12-07T12:13:14;17.90;;;9.80;;
19446;SDS011;9862;49.462;11.054;2022-12-07T12:16:06;16.10;;;8.48;;
19446;SDS011;9862;49.462;11.054;2022-12-07T12:18:48;15.55;;;8.70;;
19446;SDS011;9862;49.462;11.054;2022-12-07T12:21:25;14.00;;;8.88;;
19446;SDS011;9862;49.462;11.054;2022-12-07T12:23:55;18.63;;;9.90;;
19446;SDS011;9862;49.462;11.054;2022-12-07T12:26:26;23.70;;;11.45;;
19446;SDS011;9862;49.462;11.054;2022-12-07T12:28:55;16.65;;;9.35;;
19446;SDS011;9862;49.462;11.054;2022-12-07T12:31:32;14.80;;;8.70;;
19446;SDS011;9862;49.462;11.054;2022-12-07T12:37:13;15.75;;;8.82;;
19446;SDS011;9862;49.462;11.054;2022-12-07T12:40:23;16.90;;;8.88;;
19446;SDS011;9862;49.462;11.054;2022-12-07T12:49:14;15.13;;;8.60;;
19446;SDS011;9862;49.462;11.054;2022-12-07T12:52:01;20.15;;;9.32;;
19446;SDS011;9862;49.462;11.054;2022-12-07T12:55:14;19.55;;;11.00;;
19446;SDS011;9862;49.462;11.054;2022-12-07T12:57:46;17.40;;;9.55;;
19446;SDS011;9862;49.462;11.054;2022-12-07T13:00:17;18.10;;;10.35;;
19446;SDS011;9862;49.462;11.054;2022-12-07T13:02:50;19.77;;;9.75;;
19446;SDS011;9862;49.462;11.054;2022-12-07T13:05:19;15.63;;;8.93;;
19446;SDS011;9862;49.462;11.054;2022-12-07T13:07:52;18.15;;;9.57;;
19446;SDS011;9862;49.462;11.054;2022-12-07T13:10:36;17.35;;;9.38;;
19446;SDS011;9862;49.462;11.054;2022-12-07T13:25:30;16.30;;;8.48;;
19446;SDS011;9862;49.462;11.054;2022-12-07T13:28:07;16.52;;;9.02;;
19446;SDS011;9862;49.462;11.054;2022-12-07T13:30:43;17.83;;;8.68;;
19446;SDS011;9862;49.462;11.054;2022-12-07T13:33:13;12.68;;;8.05;;
19446;SDS011;9862;49.462;11.054;2022-12-07T13:35:43;14.43;;;7.85;;
19446;SDS011;9862;49.462;11.054;2022-12-07T13:38:16;15.98;;;8.45;;
19446;SDS011;9862;49.462;11.054;2022-12-07T13:40:59;15.13;;;8.48;;
19446;SDS011;9862;49.462;11.054;2022-12-07T13:43:44;15.38;;;8.50;;
19446;SDS011;9862;49.462;11.054;2022-12-07T13:46:12;13.90;;;8.52;;
19446;SDS011;9862;49.462;11.054;2022-12-07T13:48:43;13.60;;;8.25;;
19446;SDS011;9862;49.462;11.054;2022-12-07T13:51:16;13.80;;;7.78;;
19446;SDS011;9862;49.462;11.054;2022-12-07T13:53:48;14.38;;;8.43;;
19446;SDS011;9862;49.462;11.054;2022-12-07T13:56:16;12.50;;;7.78;;
19446;SDS011;9862;49.462;11.054;2022-12-07T13:58:44;14.35;;;8.02;;
19446;SDS011;9862;49.462;11.054;2022-12-07T14:01:12;17.60;;;8.85;;
19446;SDS011;9862;49.462;11.054;2022-12-07T14:03:39;13.38;;;8.05;;
19446;SDS011;9862;49.462;11.054;2022-12-07T14:06:17;13.57;;;8.00;;
19446;SDS011;9862;49.462;11.054;2022-12-07T14:09:05;15.93;;;6.72;;
19446;SDS011;9862;49.462;11.054;2022-12-07T14:11:33;14.82;;;7.68;;
19446;SDS011;9862;49.462;11.054;2022-12-07T14:14:02;18.60;;;8.38;;
19446;SDS011;9862;49.462;11.054;2022-12-07T14:16:30;15.52;;;8.35;;
19446;SDS011;9862;49.462;11.054;2022-12-07T14:18:58;14.63;;;8.38;;
19446;SDS011;9862;49.462;11.054;2022-12-07T14:21:27;16.95;;;9.13;;
19446;SDS011;9862;49.462;11.054;2022-12-07T14:24:11;15.10;;;7.65;;
19446;SDS011;9862;49.462;11.054;2022-12-07T14:26:43;16.02;;;9.18;;
19446;SDS011;9862;49.462;11.054;2022-12-07T14:32:20;12.55;;;7.32;;
19446;SDS011;9862;49.462;11.054;2022-12-07T14:34:54;15.27;;;8.52;;
19446;SDS011;9862;49.462;11.054;2022-12-07T14:37:22;15.52;;;7.95;;
19446;SDS011;9862;49.462;11.054;2022-12-07T14:39:49;12.90;;;8.10;;
19446;SDS011;9862;49.462;11.054;2022-12-07T14:42:16;14.18;;;7.50;;
19446;SDS011;9862;49.462;11.054;2022-12-07T14:44:44;12.80;;;6.78;;
19446;SDS011;9862;49.462;11.054;2022-12-07T14:47:11;10.27;;;6.03;;
19446;SDS011;9862;49.462;11.054;2022-12-07T14:49:38;11.93;;;6.53;;
19446;SDS011;9862;49.462;11.054;2022-12-07T14:52:05;9.65;;;6.05;;
19446;SDS011;9862;49.462;11.054;2022-12-07T14:54:37;14.18;;;6.57;;
19446;SDS011;9862;49.462;11.054;2022-12-07T14:57:04;12.40;;;7.60;;
19446;SDS011;9862;49.462;11.054;2022-12-07T14:59:30;12.95;;;7.63;;
19446;SDS011;9862;49.462;11.054;2022-12-07T15:01:58;12.60;;;7.03;;
19446;SDS011;9862;49.462;11.054;2022-12-07T15:04:25;12.05;;;6.70;;
19446;SDS011;9862;49.462;11.054;2022-12-07T15:06:55;12.30;;;6.57;;
19446;SDS011;9862;49.462;11.054;2022-12-07T15:09:22;12.13;;;7.00;;
19446;SDS011;9862;49.462;11.054;2022-12-07T15:11:49;11.38;;;6.82;;
19446;SDS011;9862;49.462;11.054;2022-12-07T15:14:16;11.55;;;7.03;;
19446;SDS011;9862;49.462;11.054;2022-12-07T15:16:43;11.73;;;6.57;;
19446;SDS011;9862;49.462;11.054;2022-12-07T15:19:12;11.07;;;7.05;;
19446;SDS011;9862;49.462;11.054;2022-12-07T15:21:40;11.88;;;7.45;;
19446;SDS011;9862;49.462;11.054;2022-12-07T15:24:08;15.88;;;9.27;;
19446;SDS011;9862;49.462;11.054;2022-12-07T15:26:35;19.65;;;11.65;;
19446;SDS011;9862;49.462;11.054;2022-12-07T15:29:02;20.08;;;10.52;;